createdAt,value
2018-08-16T00:00:59.802Z,83.51
2018-08-16T00:02:09.384Z,83.61
2018-08-16T00:03:18.967Z,83.7
2018-08-16T00:04:28.564Z,83.51
2018-08-16T00:05:37.875Z,83.99
2018-08-16T00:06:47.448Z,83.89
2018-08-16T00:07:57.020Z,83.8
2018-08-16T00:09:06.859Z,82.74
2018-08-16T00:10:16.711Z,81.1
2018-08-16T00:11:26.565Z,82.16
2018-08-16T00:12:36.416Z,82.16
2018-08-16T00:13:46.047Z,82.06
2018-08-16T00:14:56.163Z,81.87
2018-08-16T00:16:06.274Z,82.35
2018-08-16T00:17:15.859Z,81.58
2018-08-16T00:18:25.750Z,82.35
2018-08-16T00:19:35.329Z,81.87
2018-08-16T00:20:45.448Z,81.83
2018-08-16T00:21:54.753Z,81.58
2018-08-16T00:23:04.064Z,81.58
2018-08-16T00:24:13.906Z,81.63
2018-08-16T00:25:23.756Z,82.16
2018-08-16T00:26:33.332Z,81.68
2018-08-16T00:27:43.177Z,81.87
2018-08-16T00:28:53.294Z,81.77
2018-08-16T00:30:03.413Z,81.87
2018-08-16T00:31:12.445Z,81.48
2018-08-16T00:32:22.555Z,81.39
2018-08-16T00:33:32.667Z,81.54
2018-08-16T00:34:42.781Z,81.16
2018-08-16T00:35:52.908Z,81.63
2018-08-16T00:37:02.220Z,81.73
2018-08-16T00:38:11.264Z,81.16
2018-08-16T00:39:21.107Z,81.35
2018-08-16T00:40:30.680Z,81.29
2018-08-16T00:41:40.253Z,81.16
2018-08-16T00:42:50.103Z,81.63
2018-08-16T00:43:59.675Z,80.96
2018-08-16T00:45:09.244Z,80.58
2018-08-16T00:46:19.357Z,80.77
2018-08-16T00:47:29.200Z,80.77
2018-08-16T00:48:39.051Z,80.68
2018-08-16T00:49:49.176Z,80.87
2018-08-16T00:50:59.348Z,80.77
2018-08-16T00:52:08.970Z,80.29
2018-08-16T00:53:18.288Z,80.58
2018-08-16T00:54:27.871Z,80.19
2018-08-16T00:55:37.979Z,80.48
2018-08-16T00:56:48.101Z,80.29
2018-08-16T00:57:58.215Z,80
2018-08-16T00:59:07.879Z,79.81
2018-08-16T01:00:17.188Z,79.9
2018-08-16T01:01:26.498Z,79.81
2018-08-16T01:02:36.358Z,78.75
2018-08-16T01:03:45.680Z,78.75
2018-08-16T01:04:55.528Z,79.13
2018-08-16T01:06:05.110Z,79
2018-08-16T01:07:14.145Z,78.61
2018-08-16T01:08:23.987Z,79.38
2018-08-16T01:09:33.828Z,78.65
2018-08-16T01:10:43.672Z,78.52
2018-08-16T01:11:53.249Z,78.46
2018-08-16T01:13:03.096Z,79.1
2018-08-16T01:14:12.674Z,78.23
2018-08-16T01:15:22.251Z,78.33
2018-08-16T01:16:31.823Z,78.23
2018-08-16T01:17:41.678Z,78.56
2018-08-16T01:18:51.031Z,78.23
2018-08-16T01:20:01.150Z,77.94
2018-08-16T01:21:10.827Z,78.36
2018-08-16T01:22:20.188Z,77.75
2018-08-16T01:23:30.030Z,77.56
2018-08-16T01:24:39.883Z,77.65
2018-08-16T01:25:49.727Z,77.26
2018-08-16T01:26:59.304Z,77.56
2018-08-16T01:28:08.935Z,77.26
2018-08-16T01:29:18.782Z,77.46
2018-08-16T01:30:28.084Z,77.26
2018-08-16T01:31:37.935Z,77.46
2018-08-16T01:32:47.782Z,77.17
2018-08-16T01:33:57.095Z,77.26
2018-08-16T01:35:06.668Z,77.26
2018-08-16T01:36:16.510Z,76.98
2018-08-16T01:37:26.626Z,77.26
2018-08-16T01:38:35.929Z,76.98
2018-08-16T01:39:46.046Z,76.88
2018-08-16T01:40:55.893Z,76.78
2018-08-16T01:42:05.740Z,76.59
2018-08-16T01:43:15.587Z,76.59
2018-08-16T01:44:25.174Z,76.5
2018-08-16T01:45:34.803Z,76.59
2018-08-16T01:46:44.109Z,76.59
2018-08-16T01:47:53.680Z,76.59
2018-08-16T01:49:03.268Z,76.11
2018-08-16T01:50:13.116Z,76.31
2018-08-16T01:51:22.688Z,76.31
2018-08-16T01:52:32.535Z,76.21
2018-08-16T01:53:42.112Z,76.31
2018-08-16T01:54:51.971Z,76.21
2018-08-16T01:56:01.819Z,76.11
2018-08-16T01:57:11.658Z,76.01
2018-08-16T01:58:21.784Z,76.31
2018-08-16T01:59:31.628Z,76.4
2018-08-16T02:00:40.931Z,75.92
2018-08-16T02:01:50.772Z,75.92
2018-08-16T02:03:00.340Z,76.01
2018-08-16T02:04:09.923Z,76.31
2018-08-16T02:05:19.589Z,75.82
2018-08-16T02:06:29.076Z,75.73
2018-08-16T02:07:38.919Z,75.54
2018-08-16T02:08:48.493Z,75.54
2018-08-16T02:09:58.074Z,75.73
2018-08-16T02:11:07.651Z,75.63
2018-08-16T02:12:17.502Z,75.54
2018-08-16T02:13:27.346Z,75.15
2018-08-16T02:14:36.380Z,75.05
2018-08-16T02:15:46.500Z,75.15
2018-08-16T02:16:56.077Z,75.05
2018-08-16T02:18:05.384Z,74.96
2018-08-16T02:19:14.966Z,75.15
2018-08-16T02:20:24.541Z,75.15
2018-08-16T02:21:34.120Z,74.96
2018-08-16T02:22:43.425Z,73.99
2018-08-16T02:23:52.728Z,74.57
2018-08-16T02:25:02.302Z,74.57
2018-08-16T02:26:12.201Z,74.76
2018-08-16T02:27:21.779Z,74.76
2018-08-16T02:28:30.819Z,74.67
2018-08-16T02:29:40.403Z,75.05
2018-08-16T02:30:49.993Z,74.96
2018-08-16T02:31:59.903Z,75.05
2018-08-16T02:33:10.045Z,74.96
2018-08-16T02:34:20.248Z,74.86
2018-08-16T02:35:30.383Z,75.05
2018-08-16T02:36:40.502Z,75.15
2018-08-16T02:37:50.654Z,74.67
2018-08-16T02:39:00.498Z,74.67
2018-08-16T02:40:10.357Z,74.96
2018-08-16T02:41:19.981Z,74.48
2018-08-16T02:42:29.244Z,74.19
2018-08-16T02:43:38.557Z,74.76
2018-08-16T02:44:47.857Z,74.86
2018-08-16T02:45:57.750Z,74.38
2018-08-16T02:47:07.599Z,74.48
2018-08-16T02:48:16.900Z,74.38
2018-08-16T02:49:26.471Z,74.29
2018-08-16T02:50:35.784Z,73.9
2018-08-16T02:51:45.924Z,73.03
2018-08-16T02:52:55.497Z,73.42
2018-08-16T02:54:04.534Z,73.28
2018-08-16T02:55:14.739Z,73.86
2018-08-16T02:56:24.581Z,73.19
2018-08-16T02:57:34.173Z,73.77
2018-08-16T02:58:43.822Z,72.94
2018-08-16T02:59:53.967Z,73.28
2018-08-16T03:01:03.813Z,73.99
2018-08-16T03:02:13.652Z,73.9
2018-08-16T03:03:23.799Z,74.38
2018-08-16T03:04:33.691Z,74.05
2018-08-16T03:05:43.263Z,74.38
2018-08-16T03:06:53.125Z,73.9
2018-08-16T03:08:02.982Z,74.15
2018-08-16T03:09:12.556Z,74.34
2018-08-16T03:10:22.137Z,74.15
2018-08-16T03:11:31.994Z,74.25
2018-08-16T03:12:41.847Z,74.54
2018-08-16T03:13:51.968Z,74.38
2018-08-16T03:15:02.088Z,73.86
2018-08-16T03:16:11.663Z,74.15
2018-08-16T03:17:21.775Z,73.77
2018-08-16T03:18:31.082Z,73.86
2018-08-16T03:19:40.655Z,73.86
2018-08-16T03:20:50.501Z,74.25
2018-08-16T03:22:00.078Z,74.25
2018-08-16T03:23:10.192Z,73.86
2018-08-16T03:24:19.815Z,74.25
2018-08-16T03:25:29.385Z,74.05
2018-08-16T03:26:39.235Z,73.86
2018-08-16T03:27:49.075Z,73.67
2018-08-16T03:28:58.917Z,73.67
2018-08-16T03:30:08.494Z,73.57
2018-08-16T03:31:18.068Z,73.28
2018-08-16T03:32:27.921Z,73.19
2018-08-16T03:33:37.498Z,73.28
2018-08-16T03:34:47.336Z,72.9
2018-08-16T03:35:57.177Z,72.9
2018-08-16T03:37:06.753Z,73
2018-08-16T03:38:16.871Z,73
2018-08-16T03:39:26.718Z,72.9
2018-08-16T03:40:36.025Z,72.61
2018-08-16T03:41:45.925Z,72.61
2018-08-16T03:42:55.499Z,72.86
2018-08-16T03:44:05.371Z,72.29
2018-08-16T03:45:14.942Z,72.42
2018-08-16T03:46:24.517Z,72.19
2018-08-16T03:47:34.680Z,72.32
2018-08-16T03:48:44.789Z,72.42
2018-08-16T03:49:54.632Z,71.94
2018-08-16T03:51:04.476Z,71.61
2018-08-16T03:52:14.320Z,71.81
2018-08-16T03:53:24.211Z,70.84
2018-08-16T03:54:34.319Z,70.94
2018-08-16T03:55:44.437Z,70.75
2018-08-16T03:56:53.474Z,70.65
2018-08-16T03:58:03.317Z,70.46
2018-08-16T03:59:13.157Z,70.17
2018-08-16T04:00:23.002Z,70.37
2018-08-16T04:01:33.114Z,69.98
2018-08-16T04:02:42.965Z,69.12
2018-08-16T04:03:52.814Z,69.21
2018-08-16T04:05:02.766Z,68.63
2018-08-16T04:06:12.064Z,68.83
2018-08-16T04:07:21.638Z,67.96
2018-08-16T04:08:31.218Z,67.68
2018-08-16T04:09:41.061Z,67.45
2018-08-16T04:10:50.415Z,67.07
2018-08-16T04:12:00.036Z,66.91
2018-08-16T04:13:09.342Z,66
2018-08-16T04:14:18.916Z,66.68
2018-08-16T04:15:28.489Z,66.3
2018-08-16T04:16:38.058Z,66
2018-08-16T04:17:48.174Z,65.33
2018-08-16T04:18:57.484Z,65.33
2018-08-16T04:20:07.063Z,64.95
2018-08-16T04:21:16.099Z,65.05
2018-08-16T04:22:25.955Z,64.66
2018-08-16T04:23:35.620Z,64.76
2018-08-16T04:24:45.439Z,64.37
2018-08-16T04:25:55.019Z,64.28
2018-08-16T04:27:04.865Z,63.79
2018-08-16T04:28:14.710Z,63.32
2018-08-16T04:29:24.558Z,61.87
2018-08-16T04:30:34.131Z,61.87
2018-08-16T04:31:44.245Z,62.26
2018-08-16T04:32:53.822Z,61.78
2018-08-16T04:34:03.666Z,62.07
2018-08-16T04:35:13.596Z,61.87
2018-08-16T04:36:23.863Z,61.3
2018-08-16T04:37:33.985Z,61.4
2018-08-16T04:38:43.824Z,60.82
2018-08-16T04:39:53.722Z,61.3
2018-08-16T04:41:03.564Z,61.01
2018-08-16T04:42:13.407Z,60.63
2018-08-16T04:43:23.252Z,60.72
2018-08-16T04:44:33.370Z,60.05
2018-08-16T04:45:42.943Z,59.44
2018-08-16T04:46:52.247Z,58.89
2018-08-16T04:48:02.088Z,59.47
2018-08-16T04:49:11.943Z,58.99
2018-08-16T04:50:21.521Z,59.34
2018-08-16T04:51:31.414Z,59.73
2018-08-16T04:52:41.269Z,59.47
2018-08-16T04:53:50.848Z,59.54
2018-08-16T04:55:00.147Z,58.77
2018-08-16T04:56:09.723Z,58.67
2018-08-16T04:57:19.847Z,58.48
2018-08-16T04:58:29.420Z,57.81
2018-08-16T04:59:39.266Z,58.39
2018-08-16T05:00:49.125Z,57.9
2018-08-16T05:01:58.700Z,57.33
2018-08-16T05:03:08.547Z,56.66
2018-08-16T05:04:17.583Z,56.76
2018-08-16T05:05:27.425Z,56.76
2018-08-16T05:06:37.273Z,56.66
2018-08-16T05:07:46.304Z,56.18
2018-08-16T05:08:56.409Z,55.69
2018-08-16T05:10:05.729Z,55.69
2018-08-16T05:11:15.724Z,55.89
2018-08-16T05:12:25.840Z,55.41
2018-08-16T05:13:35.425Z,55.69
2018-08-16T05:14:44.992Z,55.99
2018-08-16T05:15:54.292Z,55.41
2018-08-16T05:17:04.401Z,55.51
2018-08-16T05:18:14.599Z,54.74
2018-08-16T05:19:24.446Z,55.6
2018-08-16T05:20:33.758Z,55.41
2018-08-16T05:21:43.328Z,55.6
2018-08-16T05:22:53.447Z,55.51
2018-08-16T05:24:03.156Z,55.22
2018-08-16T05:25:13.019Z,55.02
2018-08-16T05:26:22.859Z,55.22
2018-08-16T05:27:32.972Z,55.12
2018-08-16T05:28:42.269Z,55.02
2018-08-16T05:29:51.847Z,54.93
2018-08-16T05:31:01.423Z,55.02
2018-08-16T05:32:11.322Z,54.55
2018-08-16T05:33:20.896Z,55.02
2018-08-16T05:34:31.017Z,54.64
2018-08-16T05:35:40.606Z,54.45
2018-08-16T05:36:50.719Z,54.06
2018-08-16T05:38:00.306Z,54.25
2018-08-16T05:39:09.889Z,54.55
2018-08-16T05:40:19.741Z,53.97
2018-08-16T05:41:29.323Z,54.06
2018-08-16T05:42:38.905Z,53.78
2018-08-16T05:43:49.086Z,53.58
2018-08-16T05:44:58.401Z,53.97
2018-08-16T05:46:07.986Z,54.09
2018-08-16T05:47:17.833Z,53.52
2018-08-16T05:48:27.689Z,53.8
2018-08-16T05:49:37.267Z,53.49
2018-08-16T05:50:47.199Z,53.61
2018-08-16T05:51:57.836Z,53.7
2018-08-16T05:53:07.412Z,53.7
2018-08-16T05:54:16.985Z,54.09
2018-08-16T05:55:26.292Z,54.19
2018-08-16T05:56:35.875Z,54.57
2018-08-16T05:57:45.723Z,54.38
2018-08-16T05:58:55.570Z,54
2018-08-16T06:00:05.420Z,54
2018-08-16T06:01:14.727Z,54.19
2018-08-16T06:02:23.763Z,54.19
2018-08-16T06:03:33.342Z,54.67
2018-08-16T06:04:42.918Z,54.47
2018-08-16T06:05:52.786Z,54.67
2018-08-16T06:07:02.928Z,55.05
2018-08-16T06:08:12.772Z,54.96
2018-08-16T06:09:22.621Z,55.82
2018-08-16T06:10:32.201Z,55.05
2018-08-16T06:11:41.510Z,55.63
2018-08-16T06:12:51.353Z,55.46
2018-08-16T06:14:00.950Z,55.44
2018-08-16T06:15:11.097Z,55.53
2018-08-16T06:16:21.287Z,55.56
2018-08-16T06:17:31.400Z,56.14
2018-08-16T06:18:41.021Z,56.71
2018-08-16T06:19:50.328Z,57.2
2018-08-16T06:21:00.172Z,56.91
2018-08-16T06:22:09.486Z,57.68
2018-08-16T06:23:19.336Z,58.45
2018-08-16T06:24:28.684Z,59.02
2018-08-16T06:25:38.535Z,58.92
2018-08-16T06:26:48.407Z,58.54
2018-08-16T06:27:57.446Z,59.02
2018-08-16T06:29:07.021Z,58.83
2018-08-16T06:30:16.862Z,58.73
2018-08-16T06:31:26.705Z,59.41
2018-08-16T06:32:36.316Z,59.69
2018-08-16T06:33:45.630Z,59.69
2018-08-16T06:34:55.480Z,60.11
2018-08-16T06:36:04.843Z,61.36
2018-08-16T06:37:14.148Z,61.16
2018-08-16T06:38:23.724Z,60.88
2018-08-16T06:39:33.305Z,61.16
2018-08-16T06:40:43.160Z,61.46
2018-08-16T06:41:53.006Z,62.51
2018-08-16T06:43:02.847Z,62.41
2018-08-16T06:44:12.694Z,62.8
2018-08-16T06:45:22.541Z,63.86
2018-08-16T06:46:32.393Z,63.67
2018-08-16T06:47:42.260Z,65.01
2018-08-16T06:48:52.395Z,64.63
2018-08-16T06:50:02.507Z,65.01
2018-08-16T06:51:12.083Z,64.92
2018-08-16T06:52:21.115Z,66.2
2018-08-16T06:53:30.757Z,66.36
2018-08-16T06:54:40.603Z,67.32
2018-08-16T06:55:49.904Z,67.16
2018-08-16T06:56:59.484Z,66.94
2018-08-16T06:58:09.343Z,68.6
2018-08-16T06:59:19.273Z,69.38
2018-08-16T07:00:28.850Z,70.05
2018-08-16T07:01:38.699Z,71.3
2018-08-16T07:02:48.536Z,70.43
2018-08-16T07:03:58.380Z,70.82
2018-08-16T07:05:07.955Z,71.11
2018-08-16T07:06:17.597Z,70.92
2018-08-16T07:07:26.902Z,71.3
2018-08-16T07:08:36.212Z,71.2
2018-08-16T07:09:45.793Z,71.2
2018-08-16T07:10:55.105Z,71.59
2018-08-16T07:12:04.866Z,72.11
2018-08-16T07:13:14.500Z,72.74
2018-08-16T07:14:23.815Z,73.51
2018-08-16T07:15:33.674Z,73.74
2018-08-16T07:16:43.519Z,73.9
2018-08-16T07:17:53.089Z,73.61
2018-08-16T07:19:02.938Z,74.67
2018-08-16T07:20:12.252Z,74.51
2018-08-16T07:21:21.288Z,74.41
2018-08-16T07:22:31.184Z,74.9
2018-08-16T07:23:40.758Z,75.67
2018-08-16T07:24:50.095Z,75.76
2018-08-16T07:25:59.925Z,75.96
2018-08-16T07:27:09.513Z,75.76
2018-08-16T07:28:19.086Z,75.86
2018-08-16T07:29:28.392Z,76.25
2018-08-16T07:30:38.501Z,75.76
2018-08-16T07:31:48.080Z,75.76
2018-08-16T07:32:57.929Z,75.71
2018-08-16T07:34:08.041Z,76.34
2018-08-16T07:35:17.614Z,76.18
2018-08-16T07:36:27.189Z,76.48
2018-08-16T07:37:36.771Z,77.15
2018-08-16T07:38:46.350Z,76.67
2018-08-16T07:39:55.921Z,76.76
2018-08-16T07:41:06.386Z,76.67
2018-08-16T07:42:16.509Z,76.76
2018-08-16T07:43:26.359Z,76.96
2018-08-16T07:44:36.207Z,77.83
2018-08-16T07:45:45.847Z,78.11
2018-08-16T07:46:56.960Z,78.02
2018-08-16T07:48:06.267Z,78.21
2018-08-16T07:49:15.845Z,78.11
2018-08-16T07:50:25.977Z,78.06
2018-08-16T07:51:35.664Z,78.69
2018-08-16T07:52:46.652Z,78.5
2018-08-16T07:53:56.498Z,78.44
2018-08-16T07:55:06.082Z,78.83
2018-08-16T07:56:15.927Z,78.54
2018-08-16T07:57:25.235Z,78.92
2018-08-16T07:58:35.536Z,79.02
2018-08-16T07:59:45.477Z,79.11
2018-08-16T08:00:55.337Z,79.31
2018-08-16T08:02:05.189Z,79.5
2018-08-16T08:03:15.047Z,79.89
2018-08-16T08:04:24.892Z,79.31
2018-08-16T08:05:34.464Z,79.5
2018-08-16T08:06:44.310Z,79.98
2018-08-16T08:07:54.427Z,79.89
2018-08-16T08:09:04.177Z,79.69
2018-08-16T08:10:15.228Z,79.69
2018-08-16T08:11:24.810Z,79.69
2018-08-16T08:12:33.851Z,79.64
2018-08-16T08:13:43.697Z,80.22
2018-08-16T08:14:53.270Z,79.64
2018-08-16T08:16:03.114Z,80.51
2018-08-16T08:17:12.695Z,80.6
2018-08-16T08:18:21.730Z,80.31
2018-08-16T08:19:31.313Z,80.6
2018-08-16T08:20:40.672Z,81.37
2018-08-16T08:21:50.515Z,81.18
2018-08-16T08:22:59.821Z,81.47
2018-08-16T08:24:09.935Z,81.37
2018-08-16T08:25:19.572Z,81.37
2018-08-16T08:26:29.546Z,81.37
2018-08-16T08:27:39.663Z,81.76
2018-08-16T08:28:49.241Z,81.47
2018-08-16T08:29:58.818Z,82.05
2018-08-16T08:31:08.399Z,82.05
2018-08-16T08:32:18.243Z,82.14
2018-08-16T08:33:28.095Z,82.24
2018-08-16T08:34:37.935Z,82.38
2018-08-16T08:35:47.783Z,81.95
2018-08-16T08:36:57.093Z,82.67
2018-08-16T08:38:06.719Z,82.48
2018-08-16T08:39:16.569Z,82.96
2018-08-16T08:40:26.417Z,82.48
2018-08-16T08:41:36.270Z,82.38
2018-08-16T08:42:46.120Z,82.09
2018-08-16T08:43:55.696Z,82.86
2018-08-16T08:45:05.269Z,82.48
2018-08-16T08:46:15.115Z,83.05
2018-08-16T08:47:24.693Z,83.15
2018-08-16T08:48:34.540Z,83
2018-08-16T08:49:44.443Z,83.58
2018-08-16T08:50:54.554Z,83.39
2018-08-16T08:52:04.133Z,83.29
2018-08-16T08:53:13.713Z,83.09
2018-08-16T08:54:23.832Z,83.39
2018-08-16T08:55:33.944Z,83.19
2018-08-16T08:56:43.249Z,84.06
2018-08-16T08:57:52.822Z,83.87
2018-08-16T08:59:02.198Z,83.87
2018-08-16T09:00:11.780Z,83.87
2018-08-16T09:01:21.622Z,84.16
2018-08-16T09:02:31.482Z,83.96
2018-08-16T09:03:41.063Z,84.25
2018-08-16T09:04:51.188Z,84.25
2018-08-16T09:06:01.046Z,84.64
2018-08-16T09:07:10.943Z,83.96
2018-08-16T09:08:20.525Z,84.06
2018-08-16T09:09:30.645Z,84.83
2018-08-16T09:10:40.505Z,84.54
2018-08-16T09:11:49.814Z,84.64
2018-08-16T09:12:59.123Z,84.74
2018-08-16T09:14:08.972Z,84.83
2018-08-16T09:15:18.549Z,84.74
2018-08-16T09:16:28.135Z,85.02
2018-08-16T09:17:38.253Z,84.54
2018-08-16T09:18:47.832Z,84.64
2018-08-16T09:19:57.686Z,84.78
2018-08-16T09:21:07.265Z,84.93
2018-08-16T09:22:16.860Z,84.68
2018-08-16T09:23:26.436Z,85.16
2018-08-16T09:24:36.293Z,85.16
2018-08-16T09:25:46.411Z,85.06
2018-08-16T09:26:56.254Z,85.06
2018-08-16T09:28:05.839Z,84.97
2018-08-16T09:29:15.147Z,84.78
2018-08-16T09:30:25.318Z,84.97
2018-08-16T09:31:35.171Z,85.01
2018-08-16T09:32:45.859Z,85.01
2018-08-16T09:33:55.701Z,85.78
2018-08-16T09:35:05.821Z,85.11
2018-08-16T09:36:15.401Z,85.3
2018-08-16T09:37:24.706Z,84.82
2018-08-16T09:38:34.564Z,85.49
2018-08-16T09:39:44.829Z,85.11
2018-08-16T09:40:54.775Z,85.55
2018-08-16T09:42:04.622Z,85.49
2018-08-16T09:43:13.927Z,85.45
2018-08-16T09:44:23.509Z,85.45
2018-08-16T09:45:33.218Z,85.16
2018-08-16T09:46:43.474Z,85.11
2018-08-16T09:47:53.108Z,85.49
2018-08-16T09:49:03.279Z,85.45
2018-08-16T09:50:13.401Z,85.26
2018-08-16T09:51:23.335Z,85.36
2018-08-16T09:52:33.115Z,85.59
2018-08-16T09:53:42.735Z,85.21
2018-08-16T09:54:52.315Z,85.88
2018-08-16T09:56:01.892Z,85.4
2018-08-16T09:57:11.475Z,85.69
2018-08-16T09:58:21.395Z,85.01
2018-08-16T09:59:31.565Z,85.21
2018-08-16T10:00:41.692Z,85.35
2018-08-16T10:01:51.545Z,85.25
2018-08-16T10:03:01.731Z,85.53
2018-08-16T10:04:11.313Z,85.83
2018-08-16T10:05:21.165Z,85.53
2018-08-16T10:06:31.017Z,85.73
2018-08-16T10:07:41.143Z,85.73
2018-08-16T10:08:51.262Z,85.77
2018-08-16T10:10:01.117Z,85.58
2018-08-16T10:11:10.702Z,85.48
2018-08-16T10:12:19.739Z,85.29
2018-08-16T10:13:29.716Z,85.58
2018-08-16T10:14:39.815Z,86.16
2018-08-16T10:15:49.935Z,86.35
2018-08-16T10:16:59.518Z,85.77
2018-08-16T10:18:09.377Z,85.87
2018-08-16T10:19:19.228Z,85.87
2018-08-16T10:20:29.104Z,86.4
2018-08-16T10:21:38.953Z,85.82
2018-08-16T10:22:48.811Z,85.52
2018-08-16T10:23:58.660Z,85.82
2018-08-16T10:25:08.791Z,86.1
2018-08-16T10:26:18.369Z,85.42
2018-08-16T10:27:28.224Z,86.3
2018-08-16T10:28:37.799Z,85.52
2018-08-16T10:29:46.575Z,85.62
2018-08-16T10:30:56.420Z,85.96
2018-08-16T10:32:06.003Z,85.57
2018-08-16T10:33:15.584Z,85.57
2018-08-16T10:34:24.897Z,86.05
2018-08-16T10:35:34.740Z,86.82
2018-08-16T10:36:44.595Z,86.69
2018-08-16T10:37:54.453Z,86.63
2018-08-16T10:39:04.576Z,86.44
2018-08-16T10:40:13.940Z,86.78
2018-08-16T10:41:23.784Z,86.44
2018-08-16T10:42:33.644Z,86.34
2018-08-16T10:43:43.227Z,85.86
2018-08-16T10:44:52.270Z,85.86
2018-08-16T10:46:02.130Z,86.05
2018-08-16T10:47:11.706Z,86.34
2018-08-16T10:48:21.563Z,86.05
2018-08-16T10:49:31.417Z,86.63
2018-08-16T10:50:41.263Z,86.77
2018-08-16T10:51:51.113Z,86.09
2018-08-16T10:53:00.699Z,85.9
2018-08-16T10:54:10.821Z,86.29
2018-08-16T10:55:20.941Z,85.8
2018-08-16T10:56:31.057Z,86.09
2018-08-16T10:57:40.904Z,86.38
2018-08-16T10:58:50.486Z,85.9
2018-08-16T11:00:00.095Z,85.8
2018-08-16T11:01:09.775Z,85.9
2018-08-16T11:02:19.748Z,86.04
2018-08-16T11:03:29.613Z,85.55
2018-08-16T11:04:39.750Z,85.07
2018-08-16T11:05:49.603Z,85.46
2018-08-16T11:06:59.791Z,85.17
2018-08-16T11:08:09.915Z,86.33
2018-08-16T11:09:19.773Z,85.02
2018-08-16T11:10:29.353Z,84.97
2018-08-16T11:11:39.261Z,85.11
2018-08-16T11:12:48.571Z,85.36
2018-08-16T11:13:58.471Z,84.78
2018-08-16T11:15:08.050Z,85.07
2018-08-16T11:16:17.628Z,85.21
2018-08-16T11:17:27.205Z,84.92
2018-08-16T11:18:36.784Z,85.11
2018-08-16T11:19:46.680Z,85.4
2018-08-16T11:20:56.808Z,85.21
2018-08-16T11:22:06.388Z,85.02
2018-08-16T11:23:15.968Z,85.11
2018-08-16T11:24:25.828Z,85.02
2018-08-16T11:25:35.141Z,84.82
2018-08-16T11:26:44.723Z,85.02
2018-08-16T11:27:54.836Z,84.92
2018-08-16T11:29:04.694Z,84.92
2018-08-16T11:30:14.281Z,84.96
2018-08-16T11:31:24.184Z,84.47
2018-08-16T11:32:33.761Z,85.15
2018-08-16T11:33:43.609Z,85.06
2018-08-16T11:34:52.921Z,84.38
2018-08-16T11:36:01.981Z,84.86
2018-08-16T11:37:11.846Z,84.28
2018-08-16T11:38:21.965Z,84.47
2018-08-16T11:39:31.550Z,84.19
2018-08-16T11:40:40.973Z,84.09
2018-08-16T11:41:50.648Z,83.06
2018-08-16T11:43:00.496Z,83.5
2018-08-16T11:44:10.072Z,83.7
2018-08-16T11:45:20.192Z,83.8
2018-08-16T11:46:29.878Z,84.28
2018-08-16T11:47:39.633Z,84.57
2018-08-16T11:48:49.227Z,83.8
2018-08-16T11:49:58.812Z,83.74
2018-08-16T11:51:08.392Z,83.54
2018-08-16T11:52:18.239Z,84.12
2018-08-16T11:53:28.101Z,83.35
2018-08-16T11:54:38.266Z,83.35
2018-08-16T11:55:48.111Z,83.45
2018-08-16T11:56:57.419Z,83
2018-08-16T11:58:07.270Z,81.93
2018-08-16T11:59:17.405Z,82.62
2018-08-16T12:00:26.990Z,82.87
2018-08-16T12:01:36.297Z,82.62
2018-08-16T12:02:46.436Z,82.03
2018-08-16T12:03:56.029Z,82.23
2018-08-16T12:05:05.877Z,81.45
2018-08-16T12:06:15.578Z,82.62
2018-08-16T12:07:26.003Z,82.03
2018-08-16T12:08:35.857Z,82.13
2018-08-16T12:09:45.177Z,81.35
2018-08-16T12:10:55.031Z,81.55
2018-08-16T12:12:04.369Z,82.37
2018-08-16T12:13:14.512Z,81.3
2018-08-16T12:14:24.638Z,81.1
2018-08-16T12:15:34.255Z,80.71
2018-08-16T12:16:44.112Z,80.23
2018-08-16T12:17:53.698Z,79.74
2018-08-16T12:19:03.281Z,80.07
2018-08-16T12:20:13.406Z,79.84
2018-08-16T12:21:22.720Z,80.32
2018-08-16T12:22:32.571Z,80.23
2018-08-16T12:23:42.159Z,79.59
2018-08-16T12:24:52.281Z,79.49
2018-08-16T12:26:01.866Z,79.78
2018-08-16T12:27:11.459Z,80.17
2018-08-16T12:28:21.045Z,79.3
2018-08-16T12:29:31.167Z,79.49
2018-08-16T12:30:41.016Z,78.52
2018-08-16T12:31:50.874Z,78.42
2018-08-16T12:33:01.010Z,77.87
2018-08-16T12:34:10.875Z,79.04
2018-08-16T12:35:20.729Z,78.07
2018-08-16T12:36:30.100Z,76.81
2018-08-16T12:37:40.062Z,76.61
2018-08-16T12:38:49.916Z,76.9
2018-08-16T12:40:00.049Z,76.12
2018-08-16T12:41:10.335Z,76.32
2018-08-16T12:42:21.265Z,75.84
2018-08-16T12:43:31.584Z,76.45
2018-08-16T12:44:41.440Z,76.03
2018-08-16T12:45:51.565Z,76.9
2018-08-16T12:47:01.695Z,75.64
2018-08-16T12:48:11.568Z,77.39
2018-08-16T12:49:21.152Z,77.68
2018-08-16T12:50:30.741Z,76.51
2018-08-16T12:51:40.871Z,76.22
2018-08-16T12:52:50.456Z,76.35
2018-08-16T12:54:00.314Z,75.38
2018-08-16T12:55:10.181Z,75.87
2018-08-16T12:56:20.039Z,75.38
2018-08-16T12:57:29.634Z,75.29
2018-08-16T12:58:39.545Z,76.84
2018-08-16T12:59:48.863Z,74.99
2018-08-16T13:00:58.723Z,75.58
2018-08-16T13:02:08.332Z,76.35
2018-08-16T13:03:18.205Z,77.23
2018-08-16T13:04:28.067Z,75.71
2018-08-16T13:05:38.193Z,74.61
2018-08-16T13:06:47.512Z,74.35
2018-08-16T13:07:57.427Z,73.47
2018-08-16T13:09:06.967Z,73.67
2018-08-16T13:10:17.100Z,74.02
2018-08-16T13:11:26.414Z,74.35
2018-08-16T13:12:35.996Z,73.57
2018-08-16T13:13:45.854Z,72.6
2018-08-16T13:14:55.524Z,73.57
2018-08-16T13:16:05.267Z,72.7
2018-08-16T13:17:14.847Z,73.28
2018-08-16T13:18:24.978Z,73.22
2018-08-16T13:19:35.101Z,71.47
2018-08-16T13:20:44.948Z,72.05
2018-08-16T13:21:54.533Z,72.05
2018-08-16T13:23:04.129Z,71.86
2018-08-16T13:24:13.449Z,71.86
2018-08-16T13:25:22.761Z,71.08
2018-08-16T13:26:32.621Z,71.37
2018-08-16T13:27:42.265Z,71.08
2018-08-16T13:28:52.231Z,72.05
2018-08-16T13:30:02.183Z,72.15
2018-08-16T13:31:12.176Z,70.98
2018-08-16T13:32:22.356Z,71.8
2018-08-16T13:33:31.944Z,69.84
2018-08-16T13:34:40.990Z,69.68
2018-08-16T13:35:51.120Z,69.65
2018-08-16T13:37:00.826Z,69.56
2018-08-16T13:38:10.860Z,69.17
2018-08-16T13:39:20.716Z,67.7
2018-08-16T13:40:30.308Z,68.19
2018-08-16T13:41:39.620Z,67.44
2018-08-16T13:42:48.940Z,68.23
2018-08-16T13:43:58.803Z,68.9
2018-08-16T13:45:08.116Z,67.64
2018-08-16T13:46:17.976Z,67.74
2018-08-16T13:47:28.097Z,67.15
2018-08-16T13:48:38.356Z,66.89
2018-08-16T13:49:48.655Z,67.67
2018-08-16T13:50:58.798Z,67.08
2018-08-16T13:52:08.926Z,67.08
2018-08-16T13:53:18.802Z,66.89
2018-08-16T13:54:28.392Z,65.92
2018-08-16T13:55:38.529Z,66.34
2018-08-16T13:56:47.848Z,66.44
2018-08-16T13:57:58.028Z,66.5
2018-08-16T13:59:07.887Z,67.08
2018-08-16T14:00:17.471Z,65.95
2018-08-16T14:01:27.330Z,65.23
2018-08-16T14:02:37.482Z,65.63
2018-08-16T14:03:47.069Z,66.21
2018-08-16T14:04:56.659Z,65.72
2018-08-16T14:06:06.786Z,65.33
2018-08-16T14:07:16.648Z,64.84
2018-08-16T14:08:26.233Z,65.82
2018-08-16T14:09:35.829Z,65.82
2018-08-16T14:10:45.419Z,66.11
2018-08-16T14:11:55.278Z,65.63
2018-08-16T14:13:04.885Z,65.59
2018-08-16T14:14:15.046Z,66.37
2018-08-16T14:15:24.902Z,65.69
2018-08-16T14:16:34.269Z,66.47
2018-08-16T14:17:44.130Z,67.05
2018-08-16T14:18:53.719Z,66.37
2018-08-16T14:20:03.576Z,67.28
2018-08-16T14:21:13.162Z,66.11
2018-08-16T14:22:23.020Z,65.75
2018-08-16T14:23:32.611Z,64.58
2018-08-16T14:24:42.468Z,65.07
2018-08-16T14:25:52.377Z,64.68
2018-08-16T14:27:01.886Z,62.95
2018-08-16T14:28:11.480Z,63.44
2018-08-16T14:29:21.083Z,63.83
2018-08-16T14:30:30.407Z,62.21
2018-08-16T14:31:40.552Z,61.48
2018-08-16T14:32:50.693Z,60.02
2018-08-16T14:34:00.283Z,59.07
2018-08-16T14:35:10.161Z,58.84
2018-08-16T14:36:19.485Z,58.38
2018-08-16T14:37:29.084Z,58.09
2018-08-16T14:38:39.004Z,56.26
2018-08-16T14:39:48.811Z,55.28
2018-08-16T14:40:58.673Z,55.67
2018-08-16T14:42:08.268Z,56.56
2018-08-16T14:43:17.864Z,56.26
2018-08-16T14:44:27.721Z,56.06
2018-08-16T14:45:37.314Z,57.14
2018-08-16T14:46:46.906Z,57.34
2018-08-16T14:47:55.959Z,56.06
2018-08-16T14:49:06.092Z,56.04
2018-08-16T14:50:15.968Z,56.13
2018-08-16T14:51:25.860Z,56.62
2018-08-16T14:52:35.392Z,56.62
2018-08-16T14:53:45.525Z,57.21
2018-08-16T14:54:54.850Z,57.99
2018-08-16T14:56:04.449Z,57.99
2018-08-16T14:57:13.776Z,57.5
2018-08-16T14:58:23.649Z,58.02
2018-08-16T14:59:32.971Z,59.07
2018-08-16T15:00:42.850Z,59.46
2018-08-16T15:01:52.516Z,58.02